sensor_id;sensor_type;location;lat;lon;timestamp;P1;durP1;ratioP1;P2;durP2;ratioP2
47053;SDS011;32811;52.382;5.270;2022-08-01T00:01:29;5.47;;;2.42;;
47053;SDS011;32811;52.382;5.270;2022-08-01T00:03:56;3.60;;;2.13;;
47053;SDS011;32811;52.382;5.270;2022-08-01T00:06:23;7.60;;;2.47;;
47053;SDS011;32811;52.382;5.270;2022-08-01T00:08:49;3.45;;;1.83;;
47053;SDS011;32811;52.382;5.270;2022-08-01T00:11:16;2.63;;;1.73;;
47053;SDS011;32811;52.382;5.270;2022-08-01T00:13:42;2.70;;;1.45;;
47053;SDS011;32811;52.382;5.270;2022-08-01T00:16:09;1.63;;;1.50;;
47053;SDS011;32811;52.382;5.270;2022-08-01T00:18:35;1.55;;;1.40;;
47053;SDS011;32811;52.382;5.270;2022-08-01T00:21:02;1.40;;;1.30;;
47053;SDS011;32811;52.382;5.270;2022-08-01T00:23:30;2.95;;;1.10;;
47053;SDS011;32811;52.382;5.270;2022-08-01T00:25:57;1.58;;;1.33;;
47053;SDS011;32811;52.382;5.270;2022-08-01T00:28:24;1.85;;;1.40;;
47053;SDS011;32811;52.382;5.270;2022-08-01T00:30:50;1.55;;;1.30;;
47053;SDS011;32811;52.382;5.270;2022-08-01T00:33:17;2.47;;;1.23;;
47053;SDS011;32811;52.382;5.270;2022-08-01T00:35:44;1.40;;;0.95;;
47053;SDS011;32811;52.382;5.270;2022-08-01T00:38:10;1.75;;;1.42;;
47053;SDS011;32811;52.382;5.270;2022-08-01T00:40:37;2.28;;;1.10;;
47053;SDS011;32811;52.382;5.270;2022-08-01T00:43:04;1.90;;;1.00;;
47053;SDS011;32811;52.382;5.270;2022-08-01T00:45:30;1.10;;;1.00;;
47053;SDS011;32811;52.382;5.270;2022-08-01T00:47:57;1.60;;;1.00;;
47053;SDS011;32811;52.382;5.270;2022-08-01T00:50:23;1.48;;;1.13;;
47053;SDS011;32811;52.382;5.270;2022-08-01T00:52:50;1.17;;;1.08;;
47053;SDS011;32811;52.382;5.270;2022-08-01T00:55:17;1.35;;;1.10;;
47053;SDS011;32811;52.382;5.270;2022-08-01T00:57:44;5.32;;;1.42;;
47053;SDS011;32811;52.382;5.270;2022-08-01T01:00:31;1.35;;;0.98;;
47053;SDS011;32811;52.382;5.270;2022-08-01T01:03:18;0.95;;;0.88;;
47053;SDS011;32811;52.382;5.270;2022-08-01T01:05:48;1.95;;;0.85;;
47053;SDS011;32811;52.382;5.270;2022-08-01T01:08:24;1.70;;;1.00;;
47053;SDS011;32811;52.382;5.270;2022-08-01T01:10:57;0.80;;;0.80;;
47053;SDS011;32811;52.382;5.270;2022-08-01T01:13:35;1.23;;;0.98;;
47053;SDS011;32811;52.382;5.270;2022-08-01T01:16:15;1.55;;;1.25;;
47053;SDS011;32811;52.382;5.270;2022-08-01T01:35:13;1.40;;;1.25;;
47053;SDS011;32811;52.382;5.270;2022-08-01T01:37:47;2.40;;;2.20;;
47053;SDS011;32811;52.382;5.270;2022-08-01T01:40:17;2.25;;;2.00;;
47053;SDS011;32811;52.382;5.270;2022-08-01T01:42:45;2.63;;;1.42;;
47053;SDS011;32811;52.382;5.270;2022-08-01T01:45:12;1.63;;;1.30;;
47053;SDS011;32811;52.382;5.270;2022-08-01T01:47:41;2.03;;;1.30;;
47053;SDS011;32811;52.382;5.270;2022-08-01T01:50:10;1.83;;;1.35;;
47053;SDS011;32811;52.382;5.270;2022-08-01T01:52:39;4.15;;;1.73;;
47053;SDS011;32811;52.382;5.270;2022-08-01T01:55:07;2.17;;;1.42;;
47053;SDS011;32811;52.382;5.270;2022-08-01T01:57:36;2.70;;;1.60;;
47053;SDS011;32811;52.382;5.270;2022-08-01T02:00:05;2.78;;;1.83;;
47053;SDS011;32811;52.382;5.270;2022-08-01T02:02:34;2.25;;;1.80;;
47053;SDS011;32811;52.382;5.270;2022-08-01T02:05:03;1.50;;;1.40;;
47053;SDS011;32811;52.382;5.270;2022-08-01T02:07:31;2.55;;;1.67;;
47053;SDS011;32811;52.382;5.270;2022-08-01T02:09:58;4.40;;;2.42;;
47053;SDS011;32811;52.382;5.270;2022-08-01T02:18:02;3.17;;;2.00;;
47053;SDS011;32811;52.382;5.270;2022-08-01T02:20:29;3.63;;;2.40;;
47053;SDS011;32811;52.382;5.270;2022-08-01T02:34:49;3.35;;;1.60;;
47053;SDS011;32811;52.382;5.270;2022-08-01T02:37:36;2.70;;;1.60;;
47053;SDS011;32811;52.382;5.270;2022-08-01T02:41:07;4.88;;;1.77;;
47053;SDS011;32811;52.382;5.270;2022-08-01T02:44:31;4.40;;;1.42;;
47053;SDS011;32811;52.382;5.270;2022-08-01T02:47:39;5.10;;;1.40;;
47053;SDS011;32811;52.382;5.270;2022-08-01T03:07:37;5.70;;;1.83;;
47053;SDS011;32811;52.382;5.270;2022-08-01T03:10:59;2.10;;;1.80;;
47053;SDS011;32811;52.382;5.270;2022-08-01T03:13:49;4.70;;;2.28;;
47053;SDS011;32811;52.382;5.270;2022-08-01T03:16:47;3.17;;;2.47;;
47053;SDS011;32811;52.382;5.270;2022-08-01T03:19:18;2.45;;;0.70;;
47053;SDS011;32811;52.382;5.270;2022-08-01T03:21:55;0.60;;;0.50;;
47053;SDS011;32811;52.382;5.270;2022-08-01T03:24:25;0.88;;;0.45;;
47053;SDS011;32811;52.382;5.270;2022-08-01T03:26:59;0.30;;;0.30;;
47053;SDS011;32811;52.382;5.270;2022-08-01T03:29:33;0.70;;;0.60;;
47053;SDS011;32811;52.382;5.270;2022-08-01T03:32:12;1.30;;;0.70;;
47053;SDS011;32811;52.382;5.270;2022-08-01T03:34:39;0.68;;;0.45;;
47053;SDS011;32811;52.382;5.270;2022-08-01T03:37:09;1.38;;;0.70;;
47053;SDS011;32811;52.382;5.270;2022-08-01T03:39:48;1.10;;;0.80;;
47053;SDS011;32811;52.382;5.270;2022-08-01T03:42:20;3.55;;;1.08;;
47053;SDS011;32811;52.382;5.270;2022-08-01T03:44:53;4.70;;;0.90;;
47053;SDS011;32811;52.382;5.270;2022-08-01T03:47:24;2.17;;;0.82;;
47053;SDS011;32811;52.382;5.270;2022-08-01T03:49:55;1.33;;;0.80;;
47053;SDS011;32811;52.382;5.270;2022-08-01T03:52:24;3.70;;;1.10;;
47053;SDS011;32811;52.382;5.270;2022-08-01T03:54:54;1.50;;;0.90;;
47053;SDS011;32811;52.382;5.270;2022-08-01T03:57:24;5.32;;;1.38;;
47053;SDS011;32811;52.382;5.270;2022-08-01T04:00:02;3.28;;;0.77;;
47053;SDS011;32811;52.382;5.270;2022-08-01T04:02:33;1.40;;;0.88;;
47053;SDS011;32811;52.382;5.270;2022-08-01T04:05:01;1.73;;;1.13;;
47053;SDS011;32811;52.382;5.270;2022-08-01T04:07:30;1.95;;;1.02;;
47053;SDS011;32811;52.382;5.270;2022-08-01T04:09:58;7.07;;;1.70;;
47053;SDS011;32811;52.382;5.270;2022-08-01T04:12:24;1.10;;;0.60;;
47053;SDS011;32811;52.382;5.270;2022-08-01T04:14:51;5.78;;;0.80;;
47053;SDS011;32811;52.382;5.270;2022-08-01T04:17:18;1.92;;;1.00;;
47053;SDS011;32811;52.382;5.270;2022-08-01T04:19:45;1.48;;;0.75;;
47053;SDS011;32811;52.382;5.270;2022-08-01T04:22:13;1.50;;;0.63;;
47053;SDS011;32811;52.382;5.270;2022-08-01T04:24:44;1.85;;;0.70;;
47053;SDS011;32811;52.382;5.270;2022-08-01T04:27:24;1.52;;;0.98;;
47053;SDS011;32811;52.382;5.270;2022-08-01T04:30:17;2.92;;;1.10;;
47053;SDS011;32811;52.382;5.270;2022-08-01T04:32:50;4.78;;;1.35;;
47053;SDS011;32811;52.382;5.270;2022-08-01T04:35:20;4.28;;;1.33;;
47053;SDS011;32811;52.382;5.270;2022-08-01T04:38:08;2.17;;;1.25;;
47053;SDS011;32811;52.382;5.270;2022-08-01T04:40:37;2.97;;;1.10;;
47053;SDS011;32811;52.382;5.270;2022-08-01T04:43:05;2.40;;;1.20;;
47053;SDS011;32811;52.382;5.270;2022-08-01T04:45:32;3.65;;;1.00;;
47053;SDS011;32811;52.382;5.270;2022-08-01T04:47:59;4.60;;;1.35;;
47053;SDS011;32811;52.382;5.270;2022-08-01T04:50:27;3.55;;;1.25;;
47053;SDS011;32811;52.382;5.270;2022-08-01T04:52:54;2.85;;;0.90;;
47053;SDS011;32811;52.382;5.270;2022-08-01T04:55:20;1.13;;;0.80;;
47053;SDS011;32811;52.382;5.270;2022-08-01T04:57:47;3.72;;;0.98;;
47053;SDS011;32811;52.382;5.270;2022-08-01T05:00:14;5.03;;;1.27;;
47053;SDS011;32811;52.382;5.270;2022-08-01T05:02:42;4.15;;;1.00;;
47053;SDS011;32811;52.382;5.270;2022-08-01T05:05:09;1.73;;;0.80;;
47053;SDS011;32811;52.382;5.270;2022-08-01T05:07:38;4.85;;;0.88;;
47053;SDS011;32811;52.382;5.270;2022-08-01T05:10:11;2.03;;;1.35;;
47053;SDS011;32811;52.382;5.270;2022-08-01T05:12:38;7.47;;;1.10;;
47053;SDS011;32811;52.382;5.270;2022-08-01T05:15:04;2.97;;;1.05;;
47053;SDS011;32811;52.382;5.270;2022-08-01T05:17:39;4.05;;;1.50;;
47053;SDS011;32811;52.382;5.270;2022-08-01T05:20:08;15.88;;;2.47;;
47053;SDS011;32811;52.382;5.270;2022-08-01T05:22:36;7.85;;;1.25;;
47053;SDS011;32811;52.382;5.270;2022-08-01T05:25:02;4.43;;;1.33;;
47053;SDS011;32811;52.382;5.270;2022-08-01T05:27:31;12.75;;;2.65;;
47053;SDS011;32811;52.382;5.270;2022-08-01T05:29:59;6.65;;;1.85;;
47053;SDS011;32811;52.382;5.270;2022-08-01T05:32:25;5.30;;;1.58;;
47053;SDS011;32811;52.382;5.270;2022-08-01T05:34:52;2.85;;;1.35;;
47053;SDS011;32811;52.382;5.270;2022-08-01T05:37:18;5.95;;;2.42;;
47053;SDS011;32811;52.382;5.270;2022-08-01T05:39:45;10.30;;;1.88;;
47053;SDS011;32811;52.382;5.270;2022-08-01T05:42:12;5.30;;;1.65;;
47053;SDS011;32811;52.382;5.270;2022-08-01T05:44:38;8.07;;;2.50;;
47053;SDS011;32811;52.382;5.270;2022-08-01T05:47:05;8.70;;;1.25;;
47053;SDS011;32811;52.382;5.270;2022-08-01T05:49:31;4.88;;;1.55;;
47053;SDS011;32811;52.382;5.270;2022-08-01T05:51:58;3.28;;;1.20;;
47053;SDS011;32811;52.382;5.270;2022-08-01T05:54:27;6.88;;;1.55;;
47053;SDS011;32811;52.382;5.270;2022-08-01T05:56:54;7.22;;;1.20;;
47053;SDS011;32811;52.382;5.270;2022-08-01T05:59:25;4.13;;;1.27;;
47053;SDS011;32811;52.382;5.270;2022-08-01T06:01:52;6.05;;;2.28;;
47053;SDS011;32811;52.382;5.270;2022-08-01T06:04:19;3.35;;;1.45;;
47053;SDS011;32811;52.382;5.270;2022-08-01T06:06:45;5.45;;;1.35;;
47053;SDS011;32811;52.382;5.270;2022-08-01T06:09:12;11.43;;;1.67;;
47053;SDS011;32811;52.382;5.270;2022-08-01T06:11:39;11.88;;;2.33;;
47053;SDS011;32811;52.382;5.270;2022-08-01T06:14:05;10.63;;;2.45;;
47053;SDS011;32811;52.382;5.270;2022-08-01T06:16:32;9.55;;;1.98;;
47053;SDS011;32811;52.382;5.270;2022-08-01T06:18:59;8.60;;;2.05;;
47053;SDS011;32811;52.382;5.270;2022-08-01T06:21:25;10.60;;;1.90;;
47053;SDS011;32811;52.382;5.270;2022-08-01T06:23:52;9.00;;;1.60;;
47053;SDS011;32811;52.382;5.270;2022-08-01T06:26:18;7.72;;;1.20;;
47053;SDS011;32811;52.382;5.270;2022-08-01T06:28:46;10.27;;;2.22;;
47053;SDS011;32811;52.382;5.270;2022-08-01T06:31:12;8.68;;;1.60;;
47053;SDS011;32811;52.382;5.270;2022-08-01T06:33:40;8.73;;;1.50;;
47053;SDS011;32811;52.382;5.270;2022-08-01T06:36:07;7.95;;;2.13;;
47053;SDS011;32811;52.382;5.270;2022-08-01T06:38:35;6.65;;;2.00;;
47053;SDS011;32811;52.382;5.270;2022-08-01T06:41:01;11.20;;;1.45;;
47053;SDS011;32811;52.382;5.270;2022-08-01T06:43:28;5.60;;;1.30;;
47053;SDS011;32811;52.382;5.270;2022-08-01T06:45:55;4.80;;;1.30;;
47053;SDS011;32811;52.382;5.270;2022-08-01T06:48:21;7.80;;;1.80;;
47053;SDS011;32811;52.382;5.270;2022-08-01T06:50:48;7.05;;;1.25;;
47053;SDS011;32811;52.382;5.270;2022-08-01T06:53:15;9.95;;;1.85;;
47053;SDS011;32811;52.382;5.270;2022-08-01T06:55:41;10.35;;;2.10;;
47053;SDS011;32811;52.382;5.270;2022-08-01T06:58:08;12.25;;;2.03;;
47053;SDS011;32811;52.382;5.270;2022-08-01T07:00:35;6.57;;;1.30;;
47053;SDS011;32811;52.382;5.270;2022-08-01T07:03:01;9.48;;;1.50;;
47053;SDS011;32811;52.382;5.270;2022-08-01T07:05:28;7.65;;;1.75;;
47053;SDS011;32811;52.382;5.270;2022-08-01T07:07:57;9.93;;;2.17;;
47053;SDS011;32811;52.382;5.270;2022-08-01T07:10:24;5.03;;;1.48;;
47053;SDS011;32811;52.382;5.270;2022-08-01T07:12:50;9.73;;;1.67;;
47053;SDS011;32811;52.382;5.270;2022-08-01T07:15:17;15.02;;;3.20;;
47053;SDS011;32811;52.382;5.270;2022-08-01T07:17:46;12.00;;;1.27;;
47053;SDS011;32811;52.382;5.270;2022-08-01T07:20:13;9.40;;;1.17;;
47053;SDS011;32811;52.382;5.270;2022-08-01T07:22:41;7.13;;;1.60;;
47053;SDS011;32811;52.382;5.270;2022-08-01T07:25:08;12.23;;;1.83;;
47053;SDS011;32811;52.382;5.270;2022-08-01T07:27:36;6.05;;;1.70;;
47053;SDS011;32811;52.382;5.270;2022-08-01T07:30:03;13.00;;;1.67;;
47053;SDS011;32811;52.382;5.270;2022-08-01T07:32:31;14.30;;;2.67;;
47053;SDS011;32811;52.382;5.270;2022-08-01T07:34:58;9.25;;;1.25;;
47053;SDS011;32811;52.382;5.270;2022-08-01T07:37:25;13.05;;;2.75;;
47053;SDS011;32811;52.382;5.270;2022-08-01T07:40:12;9.27;;;1.65;;
47053;SDS011;32811;52.382;5.270;2022-08-01T07:42:38;11.50;;;2.53;;
47053;SDS011;32811;52.382;5.270;2022-08-01T07:45:09;15.65;;;2.75;;
47053;SDS011;32811;52.382;5.270;2022-08-01T07:47:37;9.77;;;1.35;;
47053;SDS011;32811;52.382;5.270;2022-08-01T07:50:04;16.92;;;1.85;;
47053;SDS011;32811;52.382;5.270;2022-08-01T07:52:31;11.40;;;1.45;;
47053;SDS011;32811;52.382;5.270;2022-08-01T07:54:58;14.68;;;1.58;;
47053;SDS011;32811;52.382;5.270;2022-08-01T07:57:25;7.57;;;1.92;;
47053;SDS011;32811;52.382;5.270;2022-08-01T07:59:51;8.93;;;1.35;;
47053;SDS011;32811;52.382;5.270;2022-08-01T08:02:18;11.95;;;2.20;;
47053;SDS011;32811;52.382;5.270;2022-08-01T08:04:44;11.32;;;1.67;;
47053;SDS011;32811;52.382;5.270;2022-08-01T08:07:14;8.63;;;1.40;;
47053;SDS011;32811;52.382;5.270;2022-08-01T08:09:41;8.20;;;2.20;;
47053;SDS011;32811;52.382;5.270;2022-08-01T08:12:07;7.50;;;1.63;;
47053;SDS011;32811;52.382;5.270;2022-08-01T08:14:35;9.40;;;1.75;;
47053;SDS011;32811;52.382;5.270;2022-08-01T08:17:02;8.52;;;1.80;;
47053;SDS011;32811;52.382;5.270;2022-08-01T08:19:28;7.57;;;1.55;;
47053;SDS011;32811;52.382;5.270;2022-08-01T08:22:04;8.77;;;1.48;;
47053;SDS011;32811;52.382;5.270;2022-08-01T08:24:32;7.55;;;1.50;;
47053;SDS011;32811;52.382;5.270;2022-08-01T08:26:59;11.10;;;1.70;;
47053;SDS011;32811;52.382;5.270;2022-08-01T08:29:27;10.65;;;1.45;;
47053;SDS011;32811;52.382;5.270;2022-08-01T08:31:56;8.20;;;1.60;;
47053;SDS011;32811;52.382;5.270;2022-08-01T08:34:24;13.10;;;1.38;;
47053;SDS011;32811;52.382;5.270;2022-08-01T08:36:51;12.00;;;1.50;;
47053;SDS011;32811;52.382;5.270;2022-08-01T08:39:19;6.90;;;1.10;;
47053;SDS011;32811;52.382;5.270;2022-08-01T08:41:46;8.75;;;1.55;;
47053;SDS011;32811;52.382;5.270;2022-08-01T08:44:14;10.60;;;2.10;;
47053;SDS011;32811;52.382;5.270;2022-08-01T08:46:43;9.48;;;2.22;;
47053;SDS011;32811;52.382;5.270;2022-08-01T08:49:12;10.35;;;2.80;;
47053;SDS011;32811;52.382;5.270;2022-08-01T08:51:42;10.27;;;2.50;;
47053;SDS011;32811;52.382;5.270;2022-08-01T08:54:11;13.52;;;1.73;;
47053;SDS011;32811;52.382;5.270;2022-08-01T08:56:41;9.80;;;1.30;;
47053;SDS011;32811;52.382;5.270;2022-08-01T08:59:08;10.82;;;1.30;;
47053;SDS011;32811;52.382;5.270;2022-08-01T09:01:37;7.75;;;1.88;;
47053;SDS011;32811;52.382;5.270;2022-08-01T09:04:04;11.55;;;1.90;;
47053;SDS011;32811;52.382;5.270;2022-08-01T09:06:31;11.90;;;1.75;;
47053;SDS011;32811;52.382;5.270;2022-08-01T09:08:58;4.70;;;1.25;;
47053;SDS011;32811;52.382;5.270;2022-08-01T09:11:25;9.18;;;1.17;;
47053;SDS011;32811;52.382;5.270;2022-08-01T09:14:02;8.38;;;1.40;;
47053;SDS011;32811;52.382;5.270;2022-08-01T09:16:36;12.68;;;2.40;;
47053;SDS011;32811;52.382;5.270;2022-08-01T09:19:18;9.05;;;2.10;;
47053;SDS011;32811;52.382;5.270;2022-08-01T09:22:07;8.98;;;1.40;;
47053;SDS011;32811;52.382;5.270;2022-08-01T09:24:36;7.97;;;1.35;;
47053;SDS011;32811;52.382;5.270;2022-08-01T09:27:21;12.15;;;2.53;;
47053;SDS011;32811;52.382;5.270;2022-08-01T09:29:52;8.80;;;1.65;;
47053;SDS011;32811;52.382;5.270;2022-08-01T09:32:28;7.70;;;2.20;;
47053;SDS011;32811;52.382;5.270;2022-08-01T09:35:21;8.18;;;1.63;;
47053;SDS011;32811;52.382;5.270;2022-08-01T09:38:16;6.00;;;1.25;;
47053;SDS011;32811;52.382;5.270;2022-08-01T09:43:19;9.88;;;1.75;;
47053;SDS011;32811;52.382;5.270;2022-08-01T09:45:47;13.20;;;1.25;;
47053;SDS011;32811;52.382;5.270;2022-08-01T09:48:19;6.05;;;1.13;;
47053;SDS011;32811;52.382;5.270;2022-08-01T09:50:54;15.20;;;2.45;;
47053;SDS011;32811;52.382;5.270;2022-08-01T09:53:26;7.13;;;1.00;;
47053;SDS011;32811;52.382;5.270;2022-08-01T09:56:07;7.68;;;1.27;;
47053;SDS011;32811;52.382;5.270;2022-08-01T09:58:51;7.40;;;0.82;;
47053;SDS011;32811;52.382;5.270;2022-08-01T10:01:25;14.40;;;1.52;;
47053;SDS011;32811;52.382;5.270;2022-08-01T10:04:04;7.60;;;1.05;;
47053;SDS011;32811;52.382;5.270;2022-08-01T10:06:35;12.65;;;1.67;;
47053;SDS011;32811;52.382;5.270;2022-08-01T10:09:02;4.72;;;1.08;;
47053;SDS011;32811;52.382;5.270;2022-08-01T10:11:30;7.30;;;1.00;;
47053;SDS011;32811;52.382;5.270;2022-08-01T10:14:01;6.40;;;1.13;;
47053;SDS011;32811;52.382;5.270;2022-08-01T10:16:29;6.63;;;1.10;;
47053;SDS011;32811;52.382;5.270;2022-08-01T10:18:58;4.22;;;0.75;;
47053;SDS011;32811;52.382;5.270;2022-08-01T10:21:26;6.97;;;0.77;;
47053;SDS011;32811;52.382;5.270;2022-08-01T10:24:13;7.15;;;1.25;;
47053;SDS011;32811;52.382;5.270;2022-08-01T10:26:44;6.20;;;1.10;;
47053;SDS011;32811;52.382;5.270;2022-08-01T10:29:15;2.95;;;0.93;;
47053;SDS011;32811;52.382;5.270;2022-08-01T10:32:05;3.00;;;0.70;;
47053;SDS011;32811;52.382;5.270;2022-08-01T10:34:33;5.38;;;0.82;;
47053;SDS011;32811;52.382;5.270;2022-08-01T10:37:01;8.43;;;1.23;;
47053;SDS011;32811;52.382;5.270;2022-08-01T10:39:31;6.35;;;1.70;;
47053;SDS011;32811;52.382;5.270;2022-08-01T10:41:59;7.65;;;0.93;;
47053;SDS011;32811;52.382;5.270;2022-08-01T10:44:27;6.60;;;0.90;;
47053;SDS011;32811;52.382;5.270;2022-08-01T10:46:57;4.28;;;0.90;;
47053;SDS011;32811;52.382;5.270;2022-08-01T10:49:36;6.03;;;1.38;;
47053;SDS011;32811;52.382;5.270;2022-08-01T10:52:18;5.72;;;1.05;;
47053;SDS011;32811;52.382;5.270;2022-08-01T10:54:47;13.07;;;2.38;;
47053;SDS011;32811;52.382;5.270;2022-08-01T10:57:18;15.15;;;2.08;;
47053;SDS011;32811;52.382;5.270;2022-08-01T10:59:51;8.35;;;1.35;;
47053;SDS011;32811;52.382;5.270;2022-08-01T11:02:28;6.50;;;1.52;;
47053;SDS011;32811;52.382;5.270;2022-08-01T11:05:01;6.07;;;0.80;;
47053;SDS011;32811;52.382;5.270;2022-08-01T11:07:43;11.27;;;1.35;;
47053;SDS011;32811;52.382;5.270;2022-08-01T11:10:16;6.15;;;1.10;;
47053;SDS011;32811;52.382;5.270;2022-08-01T11:12:49;5.47;;;0.75;;
47053;SDS011;32811;52.382;5.270;2022-08-01T11:15:17;6.05;;;0.98;;
47053;SDS011;32811;52.382;5.270;2022-08-01T11:17:56;5.80;;;0.70;;
47053;SDS011;32811;52.382;5.270;2022-08-01T11:28:22;5.90;;;0.93;;
47053;SDS011;32811;52.382;5.270;2022-08-01T11:39:20;2.08;;;0.80;;
47053;SDS011;32811;52.382;5.270;2022-08-01T11:41:39;8.30;;;0.80;;
47053;SDS011;32811;52.382;5.270;2022-08-01T11:44:07;3.58;;;0.82;;
47053;SDS011;32811;52.382;5.270;2022-08-01T11:49:44;5.55;;;1.42;;
47053;SDS011;32811;52.382;5.270;2022-08-01T11:54:50;6.60;;;0.98;;
47053;SDS011;32811;52.382;5.270;2022-08-01T11:57:23;5.30;;;1.77;;
47053;SDS011;32811;52.382;5.270;2022-08-01T12:00:03;3.72;;;0.80;;
47053;SDS011;32811;52.382;5.270;2022-08-01T12:02:42;6.60;;;1.15;;
47053;SDS011;32811;52.382;5.270;2022-08-01T12:05:15;4.82;;;1.10;;
47053;SDS011;32811;52.382;5.270;2022-08-01T12:07:50;5.40;;;1.13;;
47053;SDS011;32811;52.382;5.270;2022-08-01T12:10:19;5.75;;;1.00;;
47053;SDS011;32811;52.382;5.270;2022-08-01T12:12:53;6.50;;;1.13;;
47053;SDS011;32811;52.382;5.270;2022-08-01T12:15:36;3.30;;;0.80;;
47053;SDS011;32811;52.382;5.270;2022-08-01T12:18:04;4.53;;;0.80;;
47053;SDS011;32811;52.382;5.270;2022-08-01T12:20:36;4.57;;;0.75;;
47053;SDS011;32811;52.382;5.270;2022-08-01T12:23:15;7.43;;;2.22;;
47053;SDS011;32811;52.382;5.270;2022-08-01T12:25:42;5.68;;;0.80;;
47053;SDS011;32811;52.382;5.270;2022-08-01T12:28:14;12.85;;;1.25;;
47053;SDS011;32811;52.382;5.270;2022-08-01T12:30:41;2.45;;;1.15;;
47053;SDS011;32811;52.382;5.270;2022-08-01T12:33:08;6.13;;;1.00;;
47053;SDS011;32811;52.382;5.270;2022-08-01T12:35:36;3.65;;;0.70;;
47053;SDS011;32811;52.382;5.270;2022-08-01T12:38:07;3.22;;;0.32;;
47053;SDS011;32811;52.382;5.270;2022-08-01T12:40:41;3.88;;;0.98;;
47053;SDS011;32811;52.382;5.270;2022-08-01T12:43:14;4.10;;;0.65;;
47053;SDS011;32811;52.382;5.270;2022-08-01T12:45:54;4.65;;;0.80;;
47053;SDS011;32811;52.382;5.270;2022-08-01T12:48:23;3.58;;;0.70;;
47053;SDS011;32811;52.382;5.270;2022-08-01T12:50:51;4.53;;;0.80;;
47053;SDS011;32811;52.382;5.270;2022-08-01T12:53:18;7.18;;;0.70;;
47053;SDS011;32811;52.382;5.270;2022-08-01T12:55:48;5.13;;;0.50;;
47053;SDS011;32811;52.382;5.270;2022-08-01T12:58:29;9.48;;;0.70;;
47053;SDS011;32811;52.382;5.270;2022-08-01T13:01:05;4.95;;;0.93;;
47053;SDS011;32811;52.382;5.270;2022-08-01T13:03:33;3.60;;;0.50;;
47053;SDS011;32811;52.382;5.270;2022-08-01T13:06:00;7.63;;;1.20;;
47053;SDS011;32811;52.382;5.270;2022-08-01T13:08:31;5.13;;;0.93;;
47053;SDS011;32811;52.382;5.270;2022-08-01T13:11:03;5.40;;;0.68;;
47053;SDS011;32811;52.382;5.270;2022-08-01T13:13:41;7.38;;;0.80;;
47053;SDS011;32811;52.382;5.270;2022-08-01T13:16:09;5.28;;;0.68;;
47053;SDS011;32811;52.382;5.270;2022-08-01T13:18:52;8.30;;;1.55;;
47053;SDS011;32811;52.382;5.270;2022-08-01T13:21:21;6.03;;;1.13;;
47053;SDS011;32811;52.382;5.270;2022-08-01T13:24:02;2.55;;;0.50;;
47053;SDS011;32811;52.382;5.270;2022-08-01T13:26:46;1.83;;;0.60;;
47053;SDS011;32811;52.382;5.270;2022-08-01T13:32:17;6.03;;;0.98;;
47053;SDS011;32811;52.382;5.270;2022-08-01T13:35:04;5.25;;;1.35;;
47053;SDS011;32811;52.382;5.270;2022-08-01T13:37:35;5.38;;;1.00;;
47053;SDS011;32811;52.382;5.270;2022-08-01T13:40:04;3.90;;;0.73;;
47053;SDS011;32811;52.382;5.270;2022-08-01T13:42:32;2.85;;;0.70;;
47053;SDS011;32811;52.382;5.270;2022-08-01T13:44:59;6.93;;;0.80;;
47053;SDS011;32811;52.382;5.270;2022-08-01T13:47:25;4.43;;;0.75;;
47053;SDS011;32811;52.382;5.270;2022-08-01T13:49:58;8.10;;;1.13;;
47053;SDS011;32811;52.382;5.270;2022-08-01T13:52:51;8.43;;;0.70;;
47053;SDS011;32811;52.382;5.270;2022-08-01T13:55:18;4.75;;;1.45;;
47053;SDS011;32811;52.382;5.270;2022-08-01T13:57:44;8.15;;;1.58;;
47053;SDS011;32811;52.382;5.270;2022-08-01T14:00:11;7.43;;;1.48;;
47053;SDS011;32811;52.382;5.270;2022-08-01T14:02:38;5.93;;;0.82;;
47053;SDS011;32811;52.382;5.270;2022-08-01T14:05:05;3.95;;;0.90;;
47053;SDS011;32811;52.382;5.270;2022-08-01T14:07:32;6.30;;;1.02;;
47053;SDS011;32811;52.382;5.270;2022-08-01T14:09:59;4.88;;;1.27;;
47053;SDS011;32811;52.382;5.270;2022-08-01T14:12:45;6.50;;;0.93;;
47053;SDS011;32811;52.382;5.270;2022-08-01T14:15:12;8.35;;;1.77;;
47053;SDS011;32811;52.382;5.270;2022-08-01T14:17:59;7.78;;;0.75;;
47053;SDS011;32811;52.382;5.270;2022-08-01T14:20:26;7.32;;;1.55;;
47053;SDS011;32811;52.382;5.270;2022-08-01T14:22:53;2.90;;;1.38;;
47053;SDS011;32811;52.382;5.270;2022-08-01T14:25:19;3.97;;;0.70;;
47053;SDS011;32811;52.382;5.270;2022-08-01T14:28:06;10.70;;;1.58;;
47053;SDS011;32811;52.382;5.270;2022-08-01T14:30:33;6.03;;;0.98;;
47053;SDS011;32811;52.382;5.270;2022-08-01T14:32:59;5.32;;;0.82;;
47053;SDS011;32811;52.382;5.270;2022-08-01T14:35:26;4.32;;;0.77;;
47053;SDS011;32811;52.382;5.270;2022-08-01T14:37:52;3.55;;;0.40;;
47053;SDS011;32811;52.382;5.270;2022-08-01T14:40:22;3.95;;;0.80;;
47053;SDS011;32811;52.382;5.270;2022-08-01T14:42:49;4.30;;;0.60;;
47053;SDS011;32811;52.382;5.270;2022-08-01T14:45:16;4.32;;;0.90;;
47053;SDS011;32811;52.382;5.270;2022-08-01T14:47:42;5.15;;;0.85;;
47053;SDS011;32811;52.382;5.270;2022-08-01T14:50:11;4.43;;;0.82;;
47053;SDS011;32811;52.382;5.270;2022-08-01T14:52:39;5.18;;;1.08;;
47053;SDS011;32811;52.382;5.270;2022-08-01T14:55:08;4.60;;;1.02;;
47053;SDS011;32811;52.382;5.270;2022-08-01T14:57:36;2.75;;;0.77;;
47053;SDS011;32811;52.382;5.270;2022-08-01T15:00:03;5.35;;;1.40;;
47053;SDS011;32811;52.382;5.270;2022-08-01T15:02:32;4.03;;;0.75;;
47053;SDS011;32811;52.382;5.270;2022-08-01T15:04:58;4.40;;;0.65;;
47053;SDS011;32811;52.382;5.270;2022-08-01T15:07:25;8.55;;;1.08;;
47053;SDS011;32811;52.382;5.270;2022-08-01T15:09:52;4.38;;;1.38;;
47053;SDS011;32811;52.382;5.270;2022-08-01T15:12:19;4.78;;;0.60;;
47053;SDS011;32811;52.382;5.270;2022-08-01T15:14:45;5.32;;;0.70;;
47053;SDS011;32811;52.382;5.270;2022-08-01T15:17:15;4.72;;;0.60;;
47053;SDS011;32811;52.382;5.270;2022-08-01T15:19:43;4.63;;;0.43;;
47053;SDS011;32811;52.382;5.270;2022-08-01T15:22:10;7.35;;;1.67;;
47053;SDS011;32811;52.382;5.270;2022-08-01T15:24:37;4.13;;;0.70;;
47053;SDS011;32811;52.382;5.270;2022-08-01T15:27:04;6.22;;;1.02;;
47053;SDS011;32811;52.382;5.270;2022-08-01T15:29:31;2.88;;;0.60;;
47053;SDS011;32811;52.382;5.270;2022-08-01T15:32:00;4.85;;;0.60;;
47053;SDS011;32811;52.382;5.270;2022-08-01T15:34:27;3.08;;;0.47;;
47053;SDS011;32811;52.382;5.270;2022-08-01T15:36:53;4.20;;;0.60;;
47053;SDS011;32811;52.382;5.270;2022-08-01T15:39:20;3.63;;;0.90;;
47053;SDS011;32811;52.382;5.270;2022-08-01T15:41:47;7.38;;;0.90;;
47053;SDS011;32811;52.382;5.270;2022-08-01T15:44:13;4.43;;;1.13;;
47053;SDS011;32811;52.382;5.270;2022-08-01T15:46:40;3.47;;;0.50;;
47053;SDS011;32811;52.382;5.270;2022-08-01T15:49:07;3.60;;;0.80;;
47053;SDS011;32811;52.382;5.270;2022-08-01T15:51:33;6.03;;;1.17;;
47053;SDS011;32811;52.382;5.270;2022-08-01T15:54:00;2.85;;;0.50;;
47053;SDS011;32811;52.382;5.270;2022-08-01T15:56:29;6.03;;;1.02;;
47053;SDS011;32811;52.382;5.270;2022-08-01T15:58:56;6.30;;;0.82;;
47053;SDS011;32811;52.382;5.270;2022-08-01T16:01:23;3.47;;;0.93;;
47053;SDS011;32811;52.382;5.270;2022-08-01T16:03:52;6.30;;;0.60;;
47053;SDS011;32811;52.382;5.270;2022-08-01T16:06:20;3.08;;;0.40;;
47053;SDS011;32811;52.382;5.270;2022-08-01T16:08:47;3.28;;;0.70;;
47053;SDS011;32811;52.382;5.270;2022-08-01T16:11:14;4.38;;;0.70;;
47053;SDS011;32811;52.382;5.270;2022-08-01T16:13:40;7.63;;;0.60;;
47053;SDS011;32811;52.382;5.270;2022-08-01T16:16:07;4.50;;;0.82;;
47053;SDS011;32811;52.382;5.270;2022-08-01T16:18:34;5.38;;;0.60;;
47053;SDS011;32811;52.382;5.270;2022-08-01T16:21:01;5.10;;;0.88;;
47053;SDS011;32811;52.382;5.270;2022-08-01T16:23:28;6.22;;;0.70;;
47053;SDS011;32811;52.382;5.270;2022-08-01T16:25:55;4.57;;;0.77;;